Terminal Aerodrome Forecast
Issued by NWS

Current Version | Previous Version | Text Only | Print | Product List | Glossary On
Versions: 1 2 3 4 5 6 7 8 9 10 11 12 13
000
FTUS45 KPSR 020500
TAFBLH
TAF
KBLH 020520Z 0206/0306 24006KT P6SM SKC
     FM022100 18010KT P6SM SKC
     FM030300 22006KT P6SM SKC=

USA.gov is the U.S. government's official web portal to all federal, state and local government web resources and services.